Huvudsida
METAR-TAF:

METAR-TAF

Flygplatser :

Luleå Airport

Luleå, Sverige

latitud: 65-33N, longitud: 022-08E, höjd: 17 m

Aktuellt väderrapport

Denna rapport gjordes för 30 minuter sedan, klockan 02:20 UTC
Vind 2 kt varierande vindriktning
Temperatur 4°C
Fuktighet 100%
Tryck 1007 hPa
Sikt 10 km eller mer

METAR: ESPA 190220Z AUTO VRB02KT 9999 SCT180/// 04/04 Q1007

Tid: 04:50 (02:50 UTC)

Väderprognos

Denna rapport gjordes för 12 timmar och 40 minuter sedan, klockan 14:10 UTC
Prognos gäller från 18 kl. 15 UTC till 18 kl. 19 UTC
Vind 10 kt från syd
Sikt 10 km eller mer
Inga moln under 1 500 m eller inga cumulonimbus

TAF: ESPA 181410Z 1815/1819 17010KT CAVOK

Aktuella väderrapporter och prognoser från 4000 flygplatser (METAR- och TAF-rapporter).

De tillgängliga stationerna syns som gula och röda prickar på kartan.

För musen över prickarna för att se namnen på stationerna.

Klicka sedan för att få väderrapporter och prognoser.

För att ändra kartan: Klicka på de gröna knapparna med ett svart kors på för att zooma in; den gröna knappen med ett streck på för att zooma ut; eller på de gröna pilarna för angränsande kartor.


METAR-TAF: